Time;durP1;ratioP1;P1;durP2;ratioP2;P2;SDS_P1;SDS_P2;PMS_P1;PMS_P2;Temp;Humidity;BMP_temperature;BMP_pressure;BME280_temperature;BME280_humidity;BME280_pressure;Samples;Min_cycle;Max_cycle;Signal;HPM_P1;HPM_P2
2022/10/22 00:01:37;;;;;;;5.93;5.18;;;;;;;13.91;97.36;97800.84;5029595;28;20033;-92
2022/10/22 00:04:04;;;;;;;8.32;5.30;;;;;;;13.98;97.10;97806.84;5014417;28;20041;-91
2022/10/22 00:06:30;;;;;;;10.27;5.60;;;;;;;14.05;97.34;97814.63;5030566;28;20055;-92
2022/10/22 00:08:55;;;;;;;8.82;5.25;;;;;;;13.88;97.29;97791.56;5026085;28;20025;-93
2022/10/22 00:11:24;;;;;;;9.02;5.45;;;;;;;13.93;97.43;97796.97;5037192;28;20688;-91
2022/10/22 00:13:50;;;;;;;10.88;5.15;;;;;;;13.95;97.68;97788.81;5031237;28;20072;-93
2022/10/22 00:16:16;;;;;;;8.80;5.25;;;;;;;13.99;97.50;97805.81;5031360;28;20029;-92
2022/10/22 00:18:44;;;;;;;7.28;5.20;;;;;;;13.95;97.15;97799.38;5027110;28;20087;-93
2022/10/22 00:21:10;;;;;;;7.60;5.40;;;;;;;13.97;97.12;97802.56;5030585;28;20037;-92
2022/10/22 00:23:41;;;;;;;7.78;5.07;;;;;;;14.00;96.97;97812.69;5031042;28;20033;-92
2022/10/22 00:26:06;;;;;;;8.45;5.28;;;;;;;14.02;97.35;97813.25;5030823;28;20037;-91
2022/10/22 00:28:32;;;;;;;9.25;5.45;;;;;;;13.93;97.43;97807.53;5030609;28;20052;-91
2022/10/22 00:31:00;;;;;;;9.57;5.47;;;;;;;14.13;96.86;97833.56;5029360;28;20068;-92
2022/10/22 00:33:30;;;;;;;9.77;5.40;;;;;;;13.94;96.93;97810.97;5046358;28;20083;-92
2022/10/22 00:35:58;;;;;;;8.20;5.50;;;;;;;13.96;97.37;97826.53;5029658;28;20039;-92
2022/10/22 00:38:24;;;;;;;11.73;5.28;;;;;;;13.96;97.79;97819.44;5023642;28;20539;-91
2022/10/22 00:40:50;;;;;;;6.93;5.72;;;;;;;14.05;97.65;97828.63;5023256;28;20515;-93
2022/10/22 00:43:19;;;;;;;5.70;5.00;;;;;;;14.10;97.63;97838.50;5019962;28;20515;-92
2022/10/22 00:45:45;;;;;;;7.78;5.30;;;;;;;14.13;97.86;97838.03;5014742;28;20045;-92
2022/10/22 00:48:32;;;;;;;9.52;5.07;;;;;;;14.06;97.78;97842.63;5044746;28;20416;-91
2022/10/22 00:51:03;;;;;;;9.05;5.20;;;;;;;14.07;97.57;97831.81;5028619;28;20550;-91
2022/10/22 00:53:33;;;;;;;;;;;;;;;14.12;97.90;97842.50;5030310;28;20045;-91
2022/10/22 00:56:00;;;;;;;7.33;5.47;;;;;;;14.13;97.90;97838.81;5017013;28;19963;-92
2022/10/22 00:58:33;;;;;;;6.57;5.05;;;;;;;14.17;97.80;97839.19;5045477;28;20036;-91
2022/10/22 01:00:58;;;;;;;7.07;5.70;;;;;;;14.14;97.84;97848.34;5044113;28;20026;-92
2022/10/22 01:03:24;;;;;;;11.25;5.57;;;;;;;14.06;97.90;97827.59;5029598;28;20103;-91
2022/10/22 01:06:00;;;;;;;9.98;5.25;;;;;;;14.07;97.96;97831.81;5045728;28;20037;-91
2022/10/22 01:08:37;;;;;;;9.40;5.75;;;;;;;14.14;97.80;97840.44;5029744;28;20037;-91
2022/10/22 01:11:25;;;;;;;9.68;5.30;;;;;;;14.05;98.00;97826.00;5039207;28;20034;-90
2022/10/22 01:14:05;;;;;;;10.95;5.65;;;;;;;14.16;98.07;97843.66;5027793;28;20132;-91
2022/10/22 01:16:47;;;;;;;10.55;5.63;;;;;;;14.02;98.36;97821.16;5035816;28;20098;-90
2022/10/22 01:19:39;;;;;;;11.45;5.68;;;;;;;14.02;98.05;97815.09;5024224;28;20433;-92
2022/10/22 01:22:39;;;;;;;9.75;6.00;;;;;;;13.99;98.11;97819.00;5020710;28;20037;-90
2022/10/22 01:25:28;;;;;;;10.18;7.28;;;;;;;14.06;98.49;97819.69;5029624;28;20468;-91
2022/10/22 01:28:27;;;;;;;6.38;4.65;;;;;;;14.07;98.02;97826.56;5029564;28;20073;-91
2022/10/22 01:30:57;;;;;;;6.68;5.50;;;;;;;14.04;98.50;97821.75;5014213;28;20041;-90
2022/10/22 01:33:25;;;;;;;6.80;5.43;;;;;;;14.06;98.21;97811.75;5029738;28;20585;-91
2022/10/22 01:35:52;;;;;;;7.03;5.80;;;;;;;14.07;98.15;97802.03;5019948;28;20056;-91
2022/10/22 01:38:23;;;;;;;9.70;6.10;;;;;;;14.15;98.00;97820.97;5017363;28;20037;-90
2022/10/22 01:40:50;;;;;;;6.85;5.47;;;;;;;14.08;97.84;97814.16;5029496;28;20034;-90
2022/10/22 01:43:15;;;;;;;8.98;5.70;;;;;;;14.02;97.95;97797.44;5029059;28;20049;-90
2022/10/22 01:45:59;;;;;;;8.70;5.88;;;;;;;14.02;97.57;97794.00;5026226;28;20033;-90
2022/10/22 01:48:41;;;;;;;6.95;5.28;;;;;;;13.98;97.81;97787.59;5008498;28;20397;-90
2022/10/22 01:51:28;;;;;;;8.50;5.72;;;;;;;14.04;98.26;97798.03;5010670;28;20107;-91
2022/10/22 01:54:38;;;;;;;8.35;5.80;;;;;;;13.95;98.21;97794.09;5013600;28;20037;-90
2022/10/22 01:57:22;;;;;;;8.30;5.63;;;;;;;13.99;98.69;97790.00;5030394;28;20554;-89
2022/10/22 02:00:07;;;;;;;8.15;5.43;;;;;;;14.04;98.35;97787.47;5025201;28;20056;-91
2022/10/22 02:03:02;;;;;;;8.27;6.30;;;;;;;14.04;98.40;97787.47;5032752;28;20045;-90
2022/10/22 02:05:38;;;;;;;9.10;5.35;;;;;;;14.09;98.17;97784.13;5032822;28;20045;-91
2022/10/22 02:08:14;;;;;;;8.20;5.22;;;;;;;14.05;97.91;97777.72;5013023;28;20062;-90
2022/10/22 02:10:45;;;;;;;7.07;5.15;;;;;;;14.11;98.07;97782.88;5016873;28;20029;-90
2022/10/22 02:13:26;;;;;;;;;;;;;;;14.14;97.89;97792.16;5033345;28;20069;-91
2022/10/22 02:15:55;;;;;;;6.32;5.40;;;;;;;14.06;97.58;97780.13;5015887;28;19963;-90
2022/10/22 02:18:26;;;;;;;7.25;4.80;;;;;;;14.07;97.35;97765.09;5031445;28;20072;-90
2022/10/22 02:20:53;;;;;;;9.77;5.38;;;;;;;14.07;97.41;97765.91;5031311;28;20396;-90
2022/10/22 02:23:21;;;;;;;7.10;5.28;;;;;;;14.19;97.31;97774.59;5022587;28;20037;-90
2022/10/22 02:25:54;;;;;;;8.35;5.28;;;;;;;14.06;97.29;97764.31;5015712;28;20037;-91
2022/10/22 02:28:34;;;;;;;8.10;4.95;;;;;;;14.05;97.07;97762.69;5029779;28;20064;-91
2022/10/22 02:31:12;;;;;;;7.15;4.75;;;;;;;14.08;96.94;97785.97;5023278;28;20513;-90
2022/10/22 02:33:50;;;;;;;7.28;4.65;;;;;;;14.02;96.60;97783.44;5021524;28;20060;-90
2022/10/22 02:36:18;;;;;;;6.40;4.15;;;;;;;14.08;96.32;97795.72;5028282;28;20504;-91
2022/10/22 02:38:48;;;;;;;5.95;4.20;;;;;;;14.13;96.58;97796.63;5032667;28;20036;-90
2022/10/22 02:41:16;;;;;;;7.57;4.53;;;;;;;14.13;96.71;97799.28;5016722;28;20056;-91
2022/10/22 02:43:54;;;;;;;5.03;4.15;;;;;;;14.18;95.92;97804.66;5047890;28;20091;-91
2022/10/22 02:46:20;;;;;;;4.97;4.00;;;;;;;14.20;96.13;97801.78;5028919;28;20030;-91
2022/10/22 02:48:46;;;;;;;4.25;3.35;;;;;;;14.27;95.89;97796.38;5032418;28;20041;-91
2022/10/22 02:51:12;;;;;;;6.63;3.65;;;;;;;14.26;95.96;97806.13;5033037;28;20029;-90
2022/10/22 02:53:38;;;;;;;5.03;3.92;;;;;;;14.28;95.90;97798.03;5031419;28;20035;-90
2022/10/22 02:56:04;;;;;;;7.03;3.65;;;;;;;14.13;95.71;97770.25;5032398;28;20037;-91
2022/10/22 02:58:29;;;;;;;7.03;3.75;;;;;;;14.20;95.79;97786.75;5031805;28;20047;-90
2022/10/22 03:00:55;;;;;;;4.40;3.38;;;;;;;14.14;95.53;97781.59;5030730;28;20101;-90
2022/10/22 03:03:20;;;;;;;9.68;3.67;;;;;;;14.14;95.76;97785.03;5028641;28;20430;-91
2022/10/22 03:05:46;;;;;;;8.32;3.40;;;;;;;14.20;95.67;97791.25;5045296;28;20048;-91
2022/10/22 03:08:11;;;;;;;4.93;3.10;;;;;;;14.13;95.21;97782.66;5032206;28;20040;-90
2022/10/22 03:10:37;;;;;;;5.80;2.80;;;;;;;14.14;95.59;97787.69;5027616;28;20030;-91
2022/10/22 03:13:02;;;;;;;12.10;3.75;;;;;;;14.14;95.71;97784.25;5022344;28;20676;-91
2022/10/22 03:15:28;;;;;;;6.53;3.10;;;;;;;14.19;95.57;97785.16;5031135;28;20030;-90
2022/10/22 03:17:53;;;;;;;3.95;2.58;;;;;;;14.12;95.31;97792.41;5032160;28;20043;-91
2022/10/22 03:20:21;;;;;;;4.88;2.97;;;;;;;14.13;95.29;97801.91;5031029;28;20100;-91
2022/10/22 03:22:47;;;;;;;5.65;3.10;;;;;;;13.95;95.07;97786.19;5031661;28;20511;-90
2022/10/22 03:25:21;;;;;;;7.47;3.45;;;;;;;14.05;95.25;97814.63;5028143;28;20030;-90
2022/10/22 03:27:50;;;;;;;5.82;3.17;;;;;;;13.91;95.44;97811.41;5046750;28;20036;-90
2022/10/22 03:30:17;;;;;;;3.35;3.05;;;;;;;13.77;95.60;97820.56;5029779;28;20068;-90
2022/10/22 03:32:42;;;;;;;5.57;3.25;;;;;;;13.81;96.27;97811.97;5042670;28;20041;-91
2022/10/22 03:35:08;;;;;;;4.13;3.50;;;;;;;13.87;96.38;97847.16;5031337;28;20082;-91
2022/10/22 03:37:35;;;;;;;6.82;3.42;;;;;;;13.90;96.22;97833.53;5024585;28;20033;-91
2022/10/22 03:40:05;;;;;;;3.75;2.50;;;;;;;13.76;94.79;97824.22;5031435;28;20044;-91
2022/10/22 03:42:31;;;;;;;3.25;2.67;;;;;;;13.75;94.37;97814.72;5031418;28;20037;-91
2022/10/22 03:44:56;;;;;;;8.93;2.92;;;;;;;13.99;95.93;97847.19;5026902;28;20063;-91
2022/10/22 03:47:30;;;;;;;4.53;2.90;;;;;;;13.94;95.80;97850.50;5021849;28;20496;-91
2022/10/22 03:49:55;;;;;;;4.70;2.55;;;;;;;13.94;94.95;97855.78;5046667;28;20030;-91
2022/10/22 03:52:21;;;;;;;3.83;2.55;;;;;;;13.92;95.40;97855.22;5013858;28;20038;-91
2022/10/22 03:54:46;;;;;;;4.47;2.28;;;;;;;14.10;95.26;97880.69;5013145;28;20033;-91
2022/10/22 03:57:12;;;;;;;4.00;2.38;;;;;;;14.05;94.82;97862.91;5046674;28;20121;-90
2022/10/22 03:59:41;;;;;;;5.20;2.50;;;;;;;14.11;94.75;97882.28;5025312;28;20034;-91
2022/10/22 04:02:08;;;;;;;4.47;2.72;;;;;;;14.05;94.61;97877.94;5016132;28;20103;-91
2022/10/22 04:04:35;;;;;;;5.15;2.40;;;;;;;14.02;94.75;97876.53;5030755;28;20046;-90
2022/10/22 04:07:01;;;;;;;10.23;2.55;;;;;;;14.06;94.38;97880.31;5032569;28;20048;-91
2022/10/22 04:09:33;;;;;;;4.70;2.38;;;;;;;14.06;94.64;97893.50;5013996;28;20027;-91
2022/10/22 04:11:59;;;;;;;4.18;2.40;;;;;;;13.95;94.34;97873.19;5016181;28;20029;-91
2022/10/22 04:14:25;;;;;;;3.88;2.28;;;;;;;14.02;94.55;97894.19;5045875;28;20036;-91
2022/10/22 04:16:50;;;;;;;4.47;2.20;;;;;;;14.12;94.13;97897.06;5029820;28;20026;-91
2022/10/22 04:19:18;;;;;;;3.58;2.40;;;;;;;14.03;94.11;97886.03;5029899;28;20396;-91
2022/10/22 04:21:43;;;;;;;3.83;1.92;;;;;;;14.08;94.08;97904.63;5030993;28;20040;-91
2022/10/22 04:24:09;;;;;;;5.90;1.90;;;;;;;14.04;93.93;97903.50;5030001;28;20033;-91
2022/10/22 04:26:35;;;;;;;4.45;1.90;;;;;;;13.99;93.73;97906.00;5030484;28;20048;-90
2022/10/22 04:29:01;;;;;;;7.30;2.47;;;;;;;14.08;94.10;97911.75;5027671;28;20034;-91
2022/10/22 04:31:26;;;;;;;3.40;2.00;;;;;;;14.00;94.20;97899.69;5027218;28;20029;-91
2022/10/22 04:33:55;;;;;;;3.85;2.30;;;;;;;13.85;93.71;97891.38;5011514;28;20026;-90
2022/10/22 04:36:21;;;;;;;4.45;2.75;;;;;;;13.90;93.84;97908.13;5029347;28;20121;-90
2022/10/22 04:38:55;;;;;;;3.28;2.40;;;;;;;13.84;94.06;97905.59;5030164;28;20396;-91
2022/10/22 04:41:30;;;;;;;6.22;2.88;;;;;;;13.88;94.43;97909.41;5029669;28;20037;-91
2022/10/22 04:43:57;;;;;;;3.42;2.50;;;;;;;13.84;94.30;97921.41;5045635;28;20124;-90
2022/10/22 04:46:25;;;;;;;5.50;2.78;;;;;;;13.79;94.93;97929.19;5027375;28;20563;-90
2022/10/22 04:48:51;;;;;;;3.38;2.25;;;;;;;13.80;94.63;97928.19;5022224;28;20552;-92
2022/10/22 04:51:20;;;;;;;3.28;2.28;;;;;;;13.86;94.68;97930.72;5017978;28;20040;-92
2022/10/22 04:53:47;;;;;;;3.55;2.38;;;;;;;13.85;94.91;97937.03;5011292;28;20478;-91
2022/10/22 04:56:29;;;;;;;4.13;2.22;;;;;;;13.85;94.62;97923.84;5029316;28;20033;-90
2022/10/22 04:58:56;;;;;;;3.22;2.20;;;;;;;13.80;94.09;97913.16;5022028;28;20087;-91
2022/10/22 05:01:38;;;;;;;4.90;2.22;;;;;;;13.71;94.53;97914.50;5030528;28;20040;-91
2022/10/22 05:04:06;;;;;;;4.07;2.20;;;;;;;13.88;94.86;97931.28;5045476;28;20084;-90
2022/10/22 05:06:34;;;;;;;2.80;2.20;;;;;;;13.87;94.29;97932.34;5029368;28;20124;-90
2022/10/22 05:09:05;;;;;;;4.32;2.38;;;;;;;13.77;94.39;97923.34;5045450;28;20033;-90
2022/10/22 05:11:35;;;;;;;5.10;2.30;;;;;;;13.84;93.95;97935.41;5026950;28;20034;-90
2022/10/22 05:14:04;;;;;;;3.53;2.00;;;;;;;13.76;93.41;97917.28;5044317;28;20500;-90
2022/10/22 05:16:30;;;;;;;3.15;2.00;;;;;;;13.67;93.52;97923.88;5030091;28;20044;-91
2022/10/22 05:18:59;;;;;;;3.80;2.50;;;;;;;13.71;93.83;97935.59;5030142;28;20044;-90
2022/10/22 05:21:26;;;;;;;6.57;2.58;;;;;;;13.58;94.06;97927.84;5028818;28;20056;-90
2022/10/22 05:23:53;;;;;;;3.60;2.53;;;;;;;13.53;93.63;97928.53;5020181;28;20037;-89
2022/10/22 05:26:21;;;;;;;2.45;1.88;;;;;;;13.60;93.86;97934.50;5029180;28;20043;-91
2022/10/22 05:28:49;;;;;;;3.45;1.65;;;;;;;13.55;94.00;97939.63;5026612;28;20033;-90
2022/10/22 05:31:16;;;;;;;2.97;1.70;;;;;;;13.43;93.98;97928.22;5017265;28;20030;-90
2022/10/22 05:33:43;;;;;;;4.05;1.90;;;;;;;13.49;93.91;97945.00;5033605;28;20397;-90
2022/10/22 05:36:19;;;;;;;2.60;1.75;;;;;;;13.42;93.77;97944.28;5033425;28;20079;-91
2022/10/22 05:38:45;;;;;;;2.38;1.70;;;;;;;13.22;94.07;97947.94;5032326;28;20503;-91
2022/10/22 05:41:17;;;;;;;3.85;1.77;;;;;;;13.37;94.35;97955.47;5033351;28;20104;-90
2022/10/22 05:43:44;;;;;;;4.15;1.80;;;;;;;13.33;94.36;97959.59;5032311;28;20045;-90
2022/10/22 05:46:13;;;;;;;1.90;1.70;;;;;;;13.15;94.31;97927.94;5032347;28;20029;-91
2022/10/22 05:48:39;;;;;;;2.55;1.60;;;;;;;13.17;94.37;97944.31;5032981;28;20607;-90
2022/10/22 05:51:11;;;;;;;4.28;1.75;;;;;;;13.29;94.65;97956.56;5033097;28;20041;-92
2022/10/22 05:53:40;;;;;;;2.13;1.77;;;;;;;13.21;94.43;97951.59;5032309;28;20104;-92
2022/10/22 05:56:11;;;;;;;2.78;1.77;;;;;;;13.12;95.12;97939.72;5048831;28;20033;-91
2022/10/22 05:58:38;;;;;;;4.28;1.92;;;;;;;13.05;95.16;97942.41;5033490;28;20037;-91
2022/10/22 06:01:16;;;;;;;3.00;2.00;;;;;;;13.17;95.20;97962.75;5015018;28;20464;-91
2022/10/22 06:03:43;;;;;;;4.28;1.98;;;;;;;13.16;95.30;97967.22;5044984;28;20380;-91
2022/10/22 06:06:35;;;;;;;2.67;1.50;;;;;;;13.16;95.03;97976.97;5031145;28;20064;-91
2022/10/22 06:09:22;;;;;;;2.80;1.70;;;;;;;13.07;95.21;97995.69;5031347;28;20037;-91
2022/10/22 06:11:49;;;;;;;3.80;1.80;;;;;;;13.21;95.30;98021.91;5019814;28;20026;-91
2022/10/22 06:14:15;;;;;;;2.67;1.75;;;;;;;13.06;95.46;98020.38;5028017;28;20108;-91
2022/10/22 06:16:42;;;;;;;1.80;1.55;;;;;;;13.12;96.00;98027.41;5024664;28;20388;-91
2022/10/22 06:19:14;;;;;;;3.97;1.90;;;;;;;13.29;96.24;98050.59;5030989;28;20537;-91
2022/10/22 06:21:40;;;;;;;2.80;1.70;;;;;;;13.29;96.47;98032.16;5036464;28;20126;-91
2022/10/22 06:24:10;;;;;;;4.10;1.75;;;;;;;13.39;96.29;98054.34;5044963;28;20057;-91
2022/10/22 06:26:36;;;;;;;2.72;1.73;;;;;;;13.36;95.95;98033.69;5029997;28;20443;-90
2022/10/22 06:29:02;;;;;;;2.33;1.90;;;;;;;13.41;95.82;98033.03;5020747;28;20033;-90
2022/10/22 06:31:35;;;;;;;5.00;1.92;;;;;;;13.53;95.25;98038.38;5020734;28;20057;-90
2022/10/22 06:34:04;;;;;;;3.70;1.95;;;;;;;13.55;94.88;98042.41;5026882;28;20068;-89
2022/10/22 06:36:29;;;;;;;4.07;2.13;;;;;;;13.52;94.83;98037.56;5022637;28;20037;-90
2022/10/22 06:38:57;;;;;;;3.38;1.60;;;;;;;13.51;93.85;98050.97;5020686;28;20034;-91
2022/10/22 06:41:24;;;;;;;3.90;1.90;;;;;;;13.44;94.36;98032.59;5041993;28;20095;-89
2022/10/22 06:43:49;;;;;;;3.35;1.95;;;;;;;13.50;94.39;98042.28;5036744;28;20133;-90
2022/10/22 06:46:19;;;;;;;4.43;1.80;;;;;;;13.61;94.00;98052.09;5013104;28;20124;-90
2022/10/22 06:48:55;;;;;;;2.95;2.00;;;;;;;13.62;93.83;98069.50;5026532;28;20044;-90
2022/10/22 06:51:21;;;;;;;2.53;1.83;;;;;;;13.57;93.99;98060.63;5025845;28;20157;-90
2022/10/22 06:53:47;;;;;;;5.18;2.00;;;;;;;13.66;94.17;98062.75;5023142;28;20129;-90
2022/10/22 06:56:19;;;;;;;6.00;2.05;;;;;;;13.62;93.75;98055.53;5047269;28;20118;-89
2022/10/22 06:58:53;;;;;;;2.58;1.80;;;;;;;13.65;94.13;98061.13;5031632;28;20548;-89
2022/10/22 07:01:23;;;;;;;3.13;1.70;;;;;;;13.65;93.54;98058.50;5047222;28;20034;-88
2022/10/22 07:03:50;;;;;;;3.10;1.52;;;;;;;13.70;93.74;98062.31;5024205;28;20037;-89
2022/10/22 07:06:18;;;;;;;3.33;1.65;;;;;;;13.77;93.28;98081.50;5031845;28;20041;-89
2022/10/22 07:08:43;;;;;;;2.72;1.77;;;;;;;13.60;93.15;98045.19;5031008;28;20106;-89
2022/10/22 07:11:19;;;;;;;3.45;1.80;;;;;;;13.82;93.19;98087.72;5032442;28;20038;-89
2022/10/22 07:13:45;;;;;;;5.85;2.05;;;;;;;13.82;92.97;98092.19;5030941;28;20064;-89
2022/10/22 07:16:12;;;;;;;2.15;1.40;;;;;;;13.76;92.72;98100.97;5030215;28;20120;-90
2022/10/22 07:18:39;;;;;;;2.85;1.48;;;;;;;13.74;92.70;98108.31;5030659;28;20052;-85
2022/10/22 07:21:07;;;;;;;3.25;1.50;;;;;;;13.80;92.72;98124.06;5031670;28;20104;-86
2022/10/22 07:23:33;;;;;;;3.00;1.63;;;;;;;13.64;92.08;98109.59;5036757;28;20053;-86
2022/10/22 07:26:01;;;;;;;3.97;2.03;;;;;;;13.63;91.84;98107.19;5024175;28;20088;-86
2022/10/22 07:28:27;;;;;;;5.43;2.00;;;;;;;13.66;92.34;98118.09;5027108;28;20064;-85
2022/10/22 07:30:53;;;;;;;3.33;1.90;;;;;;;13.70;92.54;98117.66;5013018;28;20025;-85
2022/10/22 07:33:19;;;;;;;3.83;2.00;;;;;;;13.64;92.38;98109.59;5030243;28;20112;-86
2022/10/22 07:35:45;;;;;;;4.40;2.40;;;;;;;13.63;92.38;98110.63;5042361;28;20036;-85
2022/10/22 07:38:11;;;;;;;2.88;2.08;;;;;;;13.66;91.56;98115.47;5027033;28;20444;-85
2022/10/22 07:40:37;;;;;;;6.57;2.35;;;;;;;13.77;91.90;98131.59;5013197;28;20034;-85
2022/10/22 07:43:04;;;;;;;3.05;2.25;;;;;;;13.92;91.48;98118.84;5025644;28;20025;-86
2022/10/22 07:45:29;;;;;;;4.10;2.20;;;;;;;14.02;90.54;98120.97;5026423;28;20090;-86
2022/10/22 07:47:55;;;;;;;4.80;2.33;;;;;;;14.17;91.18;98138.03;5025900;28;20484;-86
2022/10/22 07:50:21;;;;;;;2.65;2.40;;;;;;;14.30;90.44;98136.25;5026270;28;20084;-86
2022/10/22 07:52:47;;;;;;;3.80;2.63;;;;;;;14.35;90.21;98137.19;5014987;28;20041;-86
2022/10/22 07:55:12;;;;;;;3.30;2.63;;;;;;;14.45;90.52;98134.00;5030532;28;20068;-86
2022/10/22 07:57:39;;;;;;;4.88;2.75;;;;;;;14.59;89.80;98121.50;5026930;28;20033;-86
2022/10/22 08:00:07;;;;;;;5.90;3.70;;;;;;;14.86;89.12;98127.19;5046230;28;20041;-86
2022/10/22 08:02:33;;;;;;;6.95;3.90;;;;;;;15.04;88.53;98118.38;5030098;28;20515;-86
2022/10/22 08:04:58;;;;;;;5.57;3.38;;;;;;;15.11;87.81;98125.16;5045288;28;20033;-86
2022/10/22 08:07:25;;;;;;;3.97;2.95;;;;;;;15.27;87.46;98123.69;5044626;28;20061;-85
2022/10/22 08:09:50;;;;;;;4.78;2.85;;;;;;;15.43;86.73;98130.94;5015445;28;20080;-86
2022/10/22 08:12:16;;;;;;;5.03;2.60;;;;;;;15.37;85.83;98112.56;5028860;28;20037;-86
2022/10/22 08:14:41;;;;;;;5.07;2.38;;;;;;;15.41;85.16;98124.25;5012375;28;20069;-85
2022/10/22 08:17:07;;;;;;;3.30;2.03;;;;;;;15.52;84.23;98131.38;5025331;28;20030;-86
2022/10/22 08:19:34;;;;;;;1.77;1.42;;;;;;;15.51;82.60;98140.34;5030093;28;20061;-87
2022/10/22 08:22:00;;;;;;;2.17;1.45;;;;;;;15.62;82.16;98151.97;5025404;28;20034;-87
2022/10/22 08:24:26;;;;;;;2.40;1.88;;;;;;;15.74;82.72;98160.72;5014575;28;20033;-86
2022/10/22 08:26:54;;;;;;;2.05;1.67;;;;;;;15.91;81.51;98166.94;5029904;28;20033;-86
2022/10/22 08:29:22;;;;;;;3.45;1.80;;;;;;;15.76;82.18;98162.09;5027863;28;20045;-86
2022/10/22 08:31:48;;;;;;;3.15;1.77;;;;;;;15.63;82.23;98154.41;5030025;28;20021;-86
2022/10/22 08:34:14;;;;;;;1.63;1.50;;;;;;;15.45;81.09;98151.84;5024119;28;20038;-86
2022/10/22 08:36:40;;;;;;;2.90;2.00;;;;;;;15.83;82.35;98171.75;5011277;28;20044;-86
2022/10/22 08:39:08;;;;;;;2.60;1.83;;;;;;;15.97;79.72;98181.06;5029476;28;20639;-87
2022/10/22 08:42:20;;;;;;;2.67;1.67;;;;;;;15.84;79.79;98163.63;5028292;28;20128;-87
2022/10/22 08:45:14;;;;;;;5.47;1.90;;;;;;;16.15;80.31;98183.56;5013211;28;20045;-87
2022/10/22 08:48:33;;;;;;;2.10;1.63;;;;;;;16.21;79.51;98166.75;5025044;28;20095;-87
2022/10/22 08:50:59;;;;;;;1.90;1.52;;;;;;;16.10;79.67;98164.94;5014462;28;20044;-87
2022/10/22 08:53:40;;;;;;;2.33;1.38;;;;;;;16.00;77.96;98167.38;5027844;28;20025;-87
2022/10/22 08:56:05;;;;;;;;;;;;;;;16.21;78.66;98177.34;5010177;28;20025;-88
2022/10/22 08:58:49;;;;;;;2.00;1.60;;;;;;;16.31;79.77;98161.69;5019822;28;19920;-87
2022/10/22 09:01:33;;;;;;;2.78;1.92;;;;;;;16.62;77.44;98159.63;5032002;28;20037;-87
2022/10/22 09:04:15;;;;;;;3.30;1.52;;;;;;;16.93;77.63;98178.75;5033250;28;20087;-87
2022/10/22 09:06:43;;;;;;;4.18;2.60;;;;;;;16.85;77.91;98170.13;5029239;28;20030;-91
2022/10/22 09:09:16;;;;;;;2.60;1.42;;;;;;;16.79;77.34;98181.69;5033570;28;20037;-91
2022/10/22 09:11:50;;;;;;;3.38;2.13;;;;;;;16.91;77.55;98164.91;5033929;28;20030;-91
2022/10/22 09:14:19;;;;;;;3.13;1.48;;;;;;;17.02;77.79;98183.41;5030431;28;20477;-92
2022/10/22 09:17:12;;;;;;;5.95;1.80;;;;;;;16.69;73.13;98184.09;5016432;28;20525;-92
2022/10/22 09:20:01;;;;;;;3.20;1.50;;;;;;;16.67;77.64;98183.53;5030245;28;20041;-91
2022/10/22 09:23:00;;;;;;;3.50;1.90;;;;;;;16.78;78.27;98187.19;5034670;28;20120;-92
2022/10/22 09:25:31;;;;;;;2.53;1.35;;;;;;;16.52;76.75;98196.47;5033729;28;20036;-92
2022/10/22 09:27:57;;;;;;;2.72;1.23;;;;;;;16.17;78.46;98176.19;5039873;28;20030;-92
2022/10/22 09:30:36;;;;;;;1.90;1.30;;;;;;;16.24;78.72;98191.94;5032461;28;20623;-92
2022/10/22 09:33:05;;;;;;;1.52;1.13;;;;;;;16.25;77.84;98196.19;5034290;28;20077;-87
2022/10/22 09:35:43;;;;;;;2.45;1.10;;;;;;;16.26;79.81;98193.34;5029743;28;20032;-87
2022/10/22 09:38:12;;;;;;;1.45;1.20;;;;;;;16.13;80.17;98176.88;5031597;28;20033;-87
2022/10/22 09:40:50;;;;;;;1.92;1.10;;;;;;;16.28;78.36;98198.38;5031819;28;20025;-87
2022/10/22 09:43:17;;;;;;;3.38;1.20;;;;;;;16.24;77.67;98181.34;5032430;28;20619;-87
2022/10/22 09:45:45;;;;;;;1.67;1.15;;;;;;;16.20;78.58;98196.13;5022044;28;20048;-87
2022/10/22 09:48:49;;;;;;;2.63;1.20;;;;;;;16.35;77.60;98198.25;5031864;28;20483;-87
2022/10/22 09:51:24;;;;;;;1.60;1.10;;;;;;;16.27;78.16;98197.59;5032426;28;20037;-87
2022/10/22 09:54:01;;;;;;;2.15;1.13;;;;;;;16.34;78.74;98192.16;5031759;28;20536;-87
2022/10/22 09:56:35;;;;;;;1.40;1.00;;;;;;;16.48;77.99;98182.09;5021785;28;20033;-88
2022/10/22 09:59:04;;;;;;;2.10;0.80;;;;;;;16.72;78.10;98198.75;5032441;28;20035;-89
2022/10/22 10:01:37;;;;;;;2.22;0.85;;;;;;;16.72;74.07;98196.09;5021729;28;20030;-88
2022/10/22 10:04:15;;;;;;;1.95;0.95;;;;;;;16.60;76.17;98191.59;5030949;28;20056;-88
2022/10/22 10:06:43;;;;;;;2.05;0.70;;;;;;;16.70;75.62;98200.81;5029509;28;20112;-89
2022/10/22 10:09:20;;;;;;;1.60;0.95;;;;;;;16.54;74.65;98197.84;5029151;28;20033;-83
2022/10/22 10:12:05;;;;;;;1.42;0.88;;;;;;;16.60;78.06;98207.50;5025448;28;20037;-82
2022/10/22 10:14:52;;;;;;;2.35;1.15;;;;;;;16.91;74.59;98207.28;5028971;28;20396;-88
2022/10/22 10:17:37;;;;;;;2.47;0.98;;;;;;;17.11;76.03;98200.53;5025792;28;20048;-88
2022/10/22 10:20:50;;;;;;;1.25;0.75;;;;;;;17.18;72.64;98192.41;5024703;28;20030;-89
2022/10/22 10:23:43;;;;;;;1.48;0.70;;;;;;;17.30;73.53;98205.59;5028804;28;20571;-88
2022/10/22 10:26:50;;;;;;;0.93;0.70;;;;;;;17.43;71.35;98199.19;5005888;28;20029;-88
2022/10/22 10:29:44;;;;;;;2.38;1.35;;;;;;;17.48;70.25;98197.41;5020671;28;20060;-89
2022/10/22 10:32:47;;;;;;;4.47;0.70;;;;;;;17.44;70.03;98200.78;5027329;28;20071;-89
2022/10/22 10:35:27;;;;;;;1.25;1.00;;;;;;;17.49;70.82;98200.88;5026449;28;20060;-89
2022/10/22 10:37:57;;;;;;;3.60;0.93;;;;;;;17.60;70.29;98206.09;5031117;28;20038;-89
2022/10/22 10:40:57;;;;;;;1.45;0.98;;;;;;;17.48;69.24;98199.25;5029707;28;20037;-90
2022/10/22 10:43:57;;;;;;;1.63;0.70;;;;;;;17.43;69.86;98183.28;5029983;28;20123;-88
2022/10/22 10:46:48;;;;;;;2.38;0.90;;;;;;;17.69;70.57;98211.78;5022651;28;20037;-90
2022/10/22 10:49:36;;;;;;;0.82;0.70;;;;;;;17.66;70.96;98209.63;5030507;28;20142;-90
2022/10/22 10:52:23;;;;;;;1.98;0.93;;;;;;;17.63;69.27;98208.28;5027598;28;20415;-89
2022/10/22 10:55:30;;;;;;;1.17;0.80;;;;;;;17.37;72.92;98196.44;5028330;28;20546;-90
2022/10/22 10:58:20;;;;;;;1.88;0.70;;;;;;;17.45;71.87;98215.63;5042484;28;20049;-90
2022/10/22 11:00:59;;;;;;;3.47;0.90;;;;;;;17.43;72.39;98212.44;5014836;28;20029;-89
2022/10/22 11:03:57;;;;;;;1.40;0.70;;;;;;;17.52;72.10;98216.31;5025820;28;20057;-89
2022/10/22 11:06:25;;;;;;;2.05;0.60;;;;;;;17.47;70.56;98205.63;5025445;28;20540;-89
2022/10/22 11:09:35;;;;;;;2.83;0.93;;;;;;;17.45;71.67;98202.38;5040371;28;20026;-89
2022/10/22 11:12:21;;;;;;;2.65;0.80;;;;;;;17.40;70.81;98205.78;5030281;28;20030;-89
2022/10/22 11:15:01;;;;;;;1.20;1.10;;;;;;;17.44;72.52;98216.69;5022894;28;20029;-88
2022/10/22 11:17:43;;;;;;;1.83;0.80;;;;;;;17.32;72.16;98211.47;5020255;28;20569;-89
2022/10/22 11:20:47;;;;;;;2.35;0.90;;;;;;;17.32;70.46;98204.31;5022140;28;20393;-89
2022/10/22 11:23:47;;;;;;;2.33;0.82;;;;;;;17.76;71.19;98220.41;5024834;28;20071;-89
2022/10/22 11:26:57;;;;;;;2.50;0.85;;;;;;;17.92;71.15;98219.56;5015514;28;20057;-89
2022/10/22 11:29:37;;;;;;;2.50;0.73;;;;;;;17.96;69.34;98219.09;5016405;28;20045;-89
2022/10/22 11:32:09;;;;;;;2.15;0.70;;;;;;;17.96;71.92;98211.16;5024086;28;20029;-90
2022/10/22 11:35:17;;;;;;;2.80;0.80;;;;;;;17.89;71.66;98203.38;5023984;28;20520;-89
2022/10/22 11:37:58;;;;;;;1.60;0.70;;;;;;;18.07;72.63;98219.00;5020731;28;20025;-89
2022/10/22 11:40:46;;;;;;;3.45;0.82;;;;;;;17.74;70.66;98193.31;5025001;28;20357;-89
2022/10/22 11:43:50;;;;;;;2.35;0.80;;;;;;;18.00;69.74;98220.22;5024618;28;20060;-89
2022/10/22 11:46:18;;;;;;;1.17;0.80;;;;;;;18.24;73.50;98215.50;5012605;28;20112;-89
2022/10/22 11:49:01;;;;;;;1.55;0.80;;;;;;;18.04;69.51;98202.75;5018831;28;20088;-89
2022/10/22 11:51:38;;;;;;;1.23;0.85;;;;;;;18.08;71.99;98196.72;5028874;28;20048;-90
2022/10/22 11:54:36;;;;;;;3.10;0.70;;;;;;;18.19;66.71;98213.59;5029577;28;20116;-89
2022/10/22 11:57:13;;;;;;;2.60;1.67;;;;;;;18.16;66.01;98219.38;5023144;28;20029;-89
2022/10/22 12:00:00;;;;;;;2.83;0.90;;;;;;;18.12;69.38;98207.66;5030103;28;20048;-90
2022/10/22 12:02:41;;;;;;;0.90;0.70;;;;;;;18.11;67.03;98206.03;5020828;28;20033;-89
2022/10/22 12:05:22;;;;;;;1.15;0.60;;;;;;;18.41;66.39;98214.41;5029023;28;20644;-88